sensor_id;sensor_type;location;lat;lon;timestamp;pressure;altitude;pressure_sealevel;temperature
20736;BMP180;10528;52.124;5.196;2023-12-14T00:01:57;100852.00;;;13.00
20736;BMP180;10528;52.124;5.196;2023-12-14T00:04:24;100853.00;;;13.00
20736;BMP180;10528;52.124;5.196;2023-12-14T00:06:50;100868.00;;;13.00
20736;BMP180;10528;52.124;5.196;2023-12-14T00:09:17;100878.00;;;13.00
20736;BMP180;10528;52.124;5.196;2023-12-14T00:11:44;100885.00;;;13.00
20736;BMP180;10528;52.124;5.196;2023-12-14T00:14:11;100887.00;;;13.00
20736;BMP180;10528;52.124;5.196;2023-12-14T00:16:38;100889.00;;;13.00
20736;BMP180;10528;52.124;5.196;2023-12-14T00:19:06;100894.00;;;13.00
20736;BMP180;10528;52.124;5.196;2023-12-14T00:21:33;100904.00;;;13.00
20736;BMP180;10528;52.124;5.196;2023-12-14T00:24:00;100900.00;;;13.00
20736;BMP180;10528;52.124;5.196;2023-12-14T00:26:26;100899.00;;;13.00
20736;BMP180;10528;52.124;5.196;2023-12-14T00:28:53;100908.00;;;12.90
20736;BMP180;10528;52.124;5.196;2023-12-14T00:31:28;100905.00;;;12.90
20736;BMP180;10528;52.124;5.196;2023-12-14T00:33:55;100906.00;;;12.90
20736;BMP180;10528;52.124;5.196;2023-12-14T00:36:22;100914.00;;;12.90
20736;BMP180;10528;52.124;5.196;2023-12-14T00:38:49;100904.00;;;12.90
20736;BMP180;10528;52.124;5.196;2023-12-14T00:41:15;100911.00;;;12.90
20736;BMP180;10528;52.124;5.196;2023-12-14T00:43:42;100922.00;;;12.90
20736;BMP180;10528;52.124;5.196;2023-12-14T00:46:09;100931.00;;;12.90
20736;BMP180;10528;52.124;5.196;2023-12-14T00:48:37;100943.00;;;12.90
20736;BMP180;10528;52.124;5.196;2023-12-14T00:51:05;100942.00;;;12.90
20736;BMP180;10528;52.124;5.196;2023-12-14T00:53:32;100944.00;;;12.90
20736;BMP180;10528;52.124;5.196;2023-12-14T00:55:59;100955.00;;;12.90
20736;BMP180;10528;52.124;5.196;2023-12-14T00:58:26;100958.00;;;12.90
20736;BMP180;10528;52.124;5.196;2023-12-14T01:00:53;100964.00;;;12.90
20736;BMP180;10528;52.124;5.196;2023-12-14T01:03:21;100959.00;;;12.90
20736;BMP180;10528;52.124;5.196;2023-12-14T01:05:49;100967.00;;;12.90
20736;BMP180;10528;52.124;5.196;2023-12-14T01:08:16;100973.00;;;12.90
20736;BMP180;10528;52.124;5.196;2023-12-14T01:10:43;100981.00;;;12.90
20736;BMP180;10528;52.124;5.196;2023-12-14T01:13:10;100980.00;;;12.90
20736;BMP180;10528;52.124;5.196;2023-12-14T01:15:37;100981.00;;;12.90
20736;BMP180;10528;52.124;5.196;2023-12-14T01:18:04;100976.00;;;12.90
20736;BMP180;10528;52.124;5.196;2023-12-14T01:20:32;100988.00;;;12.80
20736;BMP180;10528;52.124;5.196;2023-12-14T01:22:59;101000.00;;;12.80
20736;BMP180;10528;52.124;5.196;2023-12-14T01:25:26;100996.00;;;12.80
20736;BMP180;10528;52.124;5.196;2023-12-14T01:27:53;101000.00;;;12.80
20736;BMP180;10528;52.124;5.196;2023-12-14T01:30:19;100987.00;;;12.80
20736;BMP180;10528;52.124;5.196;2023-12-14T01:32:46;100992.00;;;12.80
20736;BMP180;10528;52.124;5.196;2023-12-14T01:35:13;101011.00;;;12.80
20736;BMP180;10528;52.124;5.196;2023-12-14T01:37:40;101019.00;;;12.80
20736;BMP180;10528;52.124;5.196;2023-12-14T01:40:08;101019.00;;;12.80
20736;BMP180;10528;52.124;5.196;2023-12-14T01:42:35;101032.00;;;12.80
20736;BMP180;10528;52.124;5.196;2023-12-14T01:45:03;101025.00;;;12.80
20736;BMP180;10528;52.124;5.196;2023-12-14T01:47:30;101035.00;;;12.80
20736;BMP180;10528;52.124;5.196;2023-12-14T01:49:57;101039.00;;;12.80
20736;BMP180;10528;52.124;5.196;2023-12-14T01:52:24;101040.00;;;12.80
20736;BMP180;10528;52.124;5.196;2023-12-14T01:54:51;101050.00;;;12.80
20736;BMP180;10528;52.124;5.196;2023-12-14T01:57:18;101043.00;;;12.80
20736;BMP180;10528;52.124;5.196;2023-12-14T01:59:45;101062.00;;;12.80
20736;BMP180;10528;52.124;5.196;2023-12-14T02:02:12;101064.00;;;12.80
20736;BMP180;10528;52.124;5.196;2023-12-14T02:04:39;101063.00;;;12.90
20736;BMP180;10528;52.124;5.196;2023-12-14T02:07:06;101077.00;;;12.90
20736;BMP180;10528;52.124;5.196;2023-12-14T02:09:33;101076.00;;;12.90
20736;BMP180;10528;52.124;5.196;2023-12-14T02:12:00;101078.00;;;12.90
20736;BMP180;10528;52.124;5.196;2023-12-14T02:14:27;101087.00;;;12.90
20736;BMP180;10528;52.124;5.196;2023-12-14T02:16:54;101079.00;;;12.90
20736;BMP180;10528;52.124;5.196;2023-12-14T02:19:21;101095.00;;;12.90
20736;BMP180;10528;52.124;5.196;2023-12-14T02:21:48;101106.00;;;12.90
20736;BMP180;10528;52.124;5.196;2023-12-14T02:24:15;101116.00;;;12.90
20736;BMP180;10528;52.124;5.196;2023-12-14T02:26:42;101123.00;;;12.90
20736;BMP180;10528;52.124;5.196;2023-12-14T02:29:28;101128.00;;;12.90
20736;BMP180;10528;52.124;5.196;2023-12-14T02:31:54;101126.00;;;12.90
20736;BMP180;10528;52.124;5.196;2023-12-14T02:34:21;101125.00;;;12.90
20736;BMP180;10528;52.124;5.196;2023-12-14T02:36:48;101143.00;;;12.90
20736;BMP180;10528;52.124;5.196;2023-12-14T02:39:15;101144.00;;;12.90
20736;BMP180;10528;52.124;5.196;2023-12-14T02:41:42;101143.00;;;12.90
20736;BMP180;10528;52.124;5.196;2023-12-14T02:44:09;101146.00;;;12.90
20736;BMP180;10528;52.124;5.196;2023-12-14T02:46:36;101142.00;;;12.90
20736;BMP180;10528;52.124;5.196;2023-12-14T02:49:03;101139.00;;;12.90
20736;BMP180;10528;52.124;5.196;2023-12-14T02:51:30;101153.00;;;12.90
20736;BMP180;10528;52.124;5.196;2023-12-14T02:53:57;101156.00;;;12.90
20736;BMP180;10528;52.124;5.196;2023-12-14T02:56:24;101164.00;;;12.90
20736;BMP180;10528;52.124;5.196;2023-12-14T02:58:51;101163.00;;;12.90
20736;BMP180;10528;52.124;5.196;2023-12-14T03:01:20;101171.00;;;12.90
20736;BMP180;10528;52.124;5.196;2023-12-14T03:03:50;101165.00;;;12.90
20736;BMP180;10528;52.124;5.196;2023-12-14T03:06:17;101171.00;;;12.90
20736;BMP180;10528;52.124;5.196;2023-12-14T03:08:44;101166.00;;;12.90
20736;BMP180;10528;52.124;5.196;2023-12-14T03:11:21;101175.00;;;12.80
20736;BMP180;10528;52.124;5.196;2023-12-14T03:13:50;101171.00;;;12.90
20736;BMP180;10528;52.124;5.196;2023-12-14T03:16:18;101174.00;;;12.80
20736;BMP180;10528;52.124;5.196;2023-12-14T03:18:45;101179.00;;;12.80
20736;BMP180;10528;52.124;5.196;2023-12-14T03:21:12;101177.00;;;12.80
20736;BMP180;10528;52.124;5.196;2023-12-14T03:23:39;101187.00;;;12.80
20736;BMP180;10528;52.124;5.196;2023-12-14T03:26:06;101183.00;;;12.80
20736;BMP180;10528;52.124;5.196;2023-12-14T03:28:33;101186.00;;;12.80
20736;BMP180;10528;52.124;5.196;2023-12-14T03:31:01;101177.00;;;12.80
20736;BMP180;10528;52.124;5.196;2023-12-14T03:33:28;101179.00;;;12.70
20736;BMP180;10528;52.124;5.196;2023-12-14T03:35:55;101166.00;;;12.70
20736;BMP180;10528;52.124;5.196;2023-12-14T03:38:22;101175.00;;;12.70
20736;BMP180;10528;52.124;5.196;2023-12-14T03:40:49;101173.00;;;12.70
20736;BMP180;10528;52.124;5.196;2023-12-14T03:43:16;101174.00;;;12.70
20736;BMP180;10528;52.124;5.196;2023-12-14T03:45:43;101181.00;;;12.70
20736;BMP180;10528;52.124;5.196;2023-12-14T03:48:10;101180.00;;;12.70
20736;BMP180;10528;52.124;5.196;2023-12-14T03:50:37;101191.00;;;12.70
20736;BMP180;10528;52.124;5.196;2023-12-14T03:53:04;101192.00;;;12.70
20736;BMP180;10528;52.124;5.196;2023-12-14T03:55:32;101199.00;;;12.70
20736;BMP180;10528;52.124;5.196;2023-12-14T03:57:59;101208.00;;;12.70
20736;BMP180;10528;52.124;5.196;2023-12-14T04:00:26;101205.00;;;12.70
20736;BMP180;10528;52.124;5.196;2023-12-14T04:02:53;101211.00;;;12.70
20736;BMP180;10528;52.124;5.196;2023-12-14T04:05:20;101218.00;;;12.70
20736;BMP180;10528;52.124;5.196;2023-12-14T04:07:47;101211.00;;;12.70
20736;BMP180;10528;52.124;5.196;2023-12-14T04:10:14;101218.00;;;12.60
20736;BMP180;10528;52.124;5.196;2023-12-14T04:12:41;101224.00;;;12.70
20736;BMP180;10528;52.124;5.196;2023-12-14T04:15:10;101215.00;;;12.60
20736;BMP180;10528;52.124;5.196;2023-12-14T04:17:37;101220.00;;;12.70
20736;BMP180;10528;52.124;5.196;2023-12-14T04:20:05;101237.00;;;12.70
20736;BMP180;10528;52.124;5.196;2023-12-14T04:22:33;101243.00;;;12.70
20736;BMP180;10528;52.124;5.196;2023-12-14T04:25:00;101250.00;;;12.70
20736;BMP180;10528;52.124;5.196;2023-12-14T04:27:27;101254.00;;;12.70
20736;BMP180;10528;52.124;5.196;2023-12-14T04:29:56;101255.00;;;12.70
20736;BMP180;10528;52.124;5.196;2023-12-14T04:32:23;101267.00;;;12.70
20736;BMP180;10528;52.124;5.196;2023-12-14T04:34:50;101264.00;;;12.70
20736;BMP180;10528;52.124;5.196;2023-12-14T04:37:17;101270.00;;;12.70
20736;BMP180;10528;52.124;5.196;2023-12-14T04:39:44;101267.00;;;12.70
20736;BMP180;10528;52.124;5.196;2023-12-14T04:42:11;101271.00;;;12.70
20736;BMP180;10528;52.124;5.196;2023-12-14T04:44:38;101283.00;;;12.70
20736;BMP180;10528;52.124;5.196;2023-12-14T04:47:06;101289.00;;;12.70
20736;BMP180;10528;52.124;5.196;2023-12-14T04:49:35;101294.00;;;12.70
20736;BMP180;10528;52.124;5.196;2023-12-14T04:52:02;101295.00;;;12.70
20736;BMP180;10528;52.124;5.196;2023-12-14T04:54:29;101297.00;;;12.70
20736;BMP180;10528;52.124;5.196;2023-12-14T04:56:56;101307.00;;;12.70
20736;BMP180;10528;52.124;5.196;2023-12-14T04:59:22;101309.00;;;12.70
20736;BMP180;10528;52.124;5.196;2023-12-14T05:01:49;101320.00;;;12.70
20736;BMP180;10528;52.124;5.196;2023-12-14T05:04:16;101330.00;;;12.70
20736;BMP180;10528;52.124;5.196;2023-12-14T05:06:44;101344.00;;;12.70
20736;BMP180;10528;52.124;5.196;2023-12-14T05:09:11;101344.00;;;12.70
20736;BMP180;10528;52.124;5.196;2023-12-14T05:11:40;101348.00;;;12.60
20736;BMP180;10528;52.124;5.196;2023-12-14T05:14:07;101348.00;;;12.60
20736;BMP180;10528;52.124;5.196;2023-12-14T05:16:34;101363.00;;;12.60
20736;BMP180;10528;52.124;5.196;2023-12-14T05:19:01;101364.00;;;12.60
20736;BMP180;10528;52.124;5.196;2023-12-14T05:21:29;101368.00;;;12.60
20736;BMP180;10528;52.124;5.196;2023-12-14T05:23:56;101373.00;;;12.60
20736;BMP180;10528;52.124;5.196;2023-12-14T05:26:23;101388.00;;;12.60
20736;BMP180;10528;52.124;5.196;2023-12-14T05:28:50;101387.00;;;12.60
20736;BMP180;10528;52.124;5.196;2023-12-14T05:31:17;101393.00;;;12.60
20736;BMP180;10528;52.124;5.196;2023-12-14T05:33:44;101386.00;;;12.60
20736;BMP180;10528;52.124;5.196;2023-12-14T05:36:11;101395.00;;;12.60
20736;BMP180;10528;52.124;5.196;2023-12-14T05:38:39;101402.00;;;12.60
20736;BMP180;10528;52.124;5.196;2023-12-14T05:41:07;101391.00;;;12.60
20736;BMP180;10528;52.124;5.196;2023-12-14T05:43:34;101402.00;;;12.50
20736;BMP180;10528;52.124;5.196;2023-12-14T05:46:01;101403.00;;;12.50
20736;BMP180;10528;52.124;5.196;2023-12-14T05:48:28;101410.00;;;12.50
20736;BMP180;10528;52.124;5.196;2023-12-14T05:50:56;101407.00;;;12.50
20736;BMP180;10528;52.124;5.196;2023-12-14T05:53:23;101417.00;;;12.50
20736;BMP180;10528;52.124;5.196;2023-12-14T05:55:50;101424.00;;;12.50
20736;BMP180;10528;52.124;5.196;2023-12-14T05:58:17;101423.00;;;12.50
20736;BMP180;10528;52.124;5.196;2023-12-14T06:00:43;101426.00;;;12.50
20736;BMP180;10528;52.124;5.196;2023-12-14T06:03:10;101397.00;;;12.50
20736;BMP180;10528;52.124;5.196;2023-12-14T06:05:38;101430.00;;;12.50
20736;BMP180;10528;52.124;5.196;2023-12-14T06:08:05;101438.00;;;12.50
20736;BMP180;10528;52.124;5.196;2023-12-14T06:10:32;101445.00;;;12.50
20736;BMP180;10528;52.124;5.196;2023-12-14T06:12:59;101436.00;;;12.50
20736;BMP180;10528;52.124;5.196;2023-12-14T06:15:26;101435.00;;;12.40
20736;BMP180;10528;52.124;5.196;2023-12-14T06:17:53;101437.00;;;12.50
20736;BMP180;10528;52.124;5.196;2023-12-14T06:20:20;101437.00;;;12.40
20736;BMP180;10528;52.124;5.196;2023-12-14T06:22:47;101450.00;;;12.40
20736;BMP180;10528;52.124;5.196;2023-12-14T06:25:14;101462.00;;;12.50
20736;BMP180;10528;52.124;5.196;2023-12-14T06:27:42;101470.00;;;12.40
20736;BMP180;10528;52.124;5.196;2023-12-14T06:30:09;101480.00;;;12.40
20736;BMP180;10528;52.124;5.196;2023-12-14T06:32:37;101478.00;;;12.40
20736;BMP180;10528;52.124;5.196;2023-12-14T06:35:05;101494.00;;;12.40
20736;BMP180;10528;52.124;5.196;2023-12-14T06:37:32;101505.00;;;12.40
20736;BMP180;10528;52.124;5.196;2023-12-14T06:39:59;101498.00;;;12.40
20736;BMP180;10528;52.124;5.196;2023-12-14T06:42:29;101507.00;;;12.30
20736;BMP180;10528;52.124;5.196;2023-12-14T06:44:58;101511.00;;;12.30
20736;BMP180;10528;52.124;5.196;2023-12-14T06:47:26;101511.00;;;12.20
20736;BMP180;10528;52.124;5.196;2023-12-14T06:49:53;101515.00;;;12.20
20736;BMP180;10528;52.124;5.196;2023-12-14T06:52:20;101522.00;;;12.20
20736;BMP180;10528;52.124;5.196;2023-12-14T06:54:47;101529.00;;;12.20
20736;BMP180;10528;52.124;5.196;2023-12-14T06:57:14;101540.00;;;12.20
20736;BMP180;10528;52.124;5.196;2023-12-14T06:59:41;101543.00;;;12.20
20736;BMP180;10528;52.124;5.196;2023-12-14T07:02:07;101556.00;;;12.30
20736;BMP180;10528;52.124;5.196;2023-12-14T07:04:35;101555.00;;;12.30
20736;BMP180;10528;52.124;5.196;2023-12-14T07:07:01;101554.00;;;12.30
20736;BMP180;10528;52.124;5.196;2023-12-14T07:09:28;101557.00;;;12.30
20736;BMP180;10528;52.124;5.196;2023-12-14T07:11:55;101553.00;;;12.30
20736;BMP180;10528;52.124;5.196;2023-12-14T07:14:22;101559.00;;;12.30
20736;BMP180;10528;52.124;5.196;2023-12-14T07:16:52;101563.00;;;12.30
20736;BMP180;10528;52.124;5.196;2023-12-14T07:19:19;101569.00;;;12.30
20736;BMP180;10528;52.124;5.196;2023-12-14T07:21:45;101570.00;;;12.20
20736;BMP180;10528;52.124;5.196;2023-12-14T07:24:12;101571.00;;;12.20
20736;BMP180;10528;52.124;5.196;2023-12-14T07:26:39;101577.00;;;12.20
20736;BMP180;10528;52.124;5.196;2023-12-14T07:29:06;101579.00;;;12.20
20736;BMP180;10528;52.124;5.196;2023-12-14T07:31:33;101586.00;;;12.20
20736;BMP180;10528;52.124;5.196;2023-12-14T07:34:00;101591.00;;;12.20
20736;BMP180;10528;52.124;5.196;2023-12-14T07:36:28;101584.00;;;12.20
20736;BMP180;10528;52.124;5.196;2023-12-14T07:38:55;101596.00;;;12.20
20736;BMP180;10528;52.124;5.196;2023-12-14T07:41:22;101594.00;;;12.20
20736;BMP180;10528;52.124;5.196;2023-12-14T07:43:56;101600.00;;;12.10
20736;BMP180;10528;52.124;5.196;2023-12-14T07:46:23;101596.00;;;12.20
20736;BMP180;10528;52.124;5.196;2023-12-14T07:48:50;101605.00;;;12.20
20736;BMP180;10528;52.124;5.196;2023-12-14T07:51:17;101617.00;;;12.20
20736;BMP180;10528;52.124;5.196;2023-12-14T07:53:44;101620.00;;;12.20
20736;BMP180;10528;52.124;5.196;2023-12-14T07:56:13;101618.00;;;12.20
20736;BMP180;10528;52.124;5.196;2023-12-14T07:58:41;101612.00;;;12.20
20736;BMP180;10528;52.124;5.196;2023-12-14T08:01:08;101624.00;;;12.20
20736;BMP180;10528;52.124;5.196;2023-12-14T08:03:35;101630.00;;;12.20
20736;BMP180;10528;52.124;5.196;2023-12-14T08:06:03;101633.00;;;12.20
20736;BMP180;10528;52.124;5.196;2023-12-14T08:08:29;101640.00;;;12.20
20736;BMP180;10528;52.124;5.196;2023-12-14T08:10:56;101641.00;;;12.20
20736;BMP180;10528;52.124;5.196;2023-12-14T08:13:23;101646.00;;;12.20
20736;BMP180;10528;52.124;5.196;2023-12-14T08:15:50;101633.00;;;12.20
20736;BMP180;10528;52.124;5.196;2023-12-14T08:18:17;101638.00;;;12.20
20736;BMP180;10528;52.124;5.196;2023-12-14T08:20:44;101646.00;;;12.20
20736;BMP180;10528;52.124;5.196;2023-12-14T08:23:11;101646.00;;;12.20
20736;BMP180;10528;52.124;5.196;2023-12-14T08:25:38;101643.00;;;12.20
20736;BMP180;10528;52.124;5.196;2023-12-14T08:28:05;101658.00;;;12.20
20736;BMP180;10528;52.124;5.196;2023-12-14T08:30:32;101650.00;;;12.20
20736;BMP180;10528;52.124;5.196;2023-12-14T08:32:59;101659.00;;;12.20
20736;BMP180;10528;52.124;5.196;2023-12-14T08:35:26;101651.00;;;12.20
20736;BMP180;10528;52.124;5.196;2023-12-14T08:37:53;101658.00;;;12.20
20736;BMP180;10528;52.124;5.196;2023-12-14T08:40:20;101672.00;;;12.30
20736;BMP180;10528;52.124;5.196;2023-12-14T08:42:47;101677.00;;;12.30
20736;BMP180;10528;52.124;5.196;2023-12-14T08:45:15;101681.00;;;12.30
20736;BMP180;10528;52.124;5.196;2023-12-14T08:47:42;101694.00;;;12.30
20736;BMP180;10528;52.124;5.196;2023-12-14T08:50:09;101688.00;;;12.30
20736;BMP180;10528;52.124;5.196;2023-12-14T08:52:37;101693.00;;;12.30
20736;BMP180;10528;52.124;5.196;2023-12-14T08:55:05;101711.00;;;12.30
20736;BMP180;10528;52.124;5.196;2023-12-14T08:57:32;101717.00;;;12.30
20736;BMP180;10528;52.124;5.196;2023-12-14T08:59:59;101700.00;;;12.30
20736;BMP180;10528;52.124;5.196;2023-12-14T09:02:26;101712.00;;;12.30
20736;BMP180;10528;52.124;5.196;2023-12-14T09:04:53;101707.00;;;12.30
20736;BMP180;10528;52.124;5.196;2023-12-14T09:07:20;101718.00;;;12.30
20736;BMP180;10528;52.124;5.196;2023-12-14T09:09:47;101718.00;;;12.30
20736;BMP180;10528;52.124;5.196;2023-12-14T09:12:14;101721.00;;;12.40
20736;BMP180;10528;52.124;5.196;2023-12-14T09:14:41;101727.00;;;12.30
20736;BMP180;10528;52.124;5.196;2023-12-14T09:17:09;101731.00;;;12.40
20736;BMP180;10528;52.124;5.196;2023-12-14T09:19:36;101729.00;;;12.40
20736;BMP180;10528;52.124;5.196;2023-12-14T09:22:03;101734.00;;;12.40
20736;BMP180;10528;52.124;5.196;2023-12-14T09:24:30;101746.00;;;12.40
20736;BMP180;10528;52.124;5.196;2023-12-14T09:26:57;101748.00;;;12.40
20736;BMP180;10528;52.124;5.196;2023-12-14T09:29:24;101752.00;;;12.40
20736;BMP180;10528;52.124;5.196;2023-12-14T09:31:51;101745.00;;;12.50
20736;BMP180;10528;52.124;5.196;2023-12-14T09:34:18;101757.00;;;12.50
20736;BMP180;10528;52.124;5.196;2023-12-14T09:36:45;101761.00;;;12.50
20736;BMP180;10528;52.124;5.196;2023-12-14T09:39:12;101765.00;;;12.60
20736;BMP180;10528;52.124;5.196;2023-12-14T09:41:40;101767.00;;;12.60
20736;BMP180;10528;52.124;5.196;2023-12-14T09:44:07;101773.00;;;12.60
20736;BMP180;10528;52.124;5.196;2023-12-14T09:46:37;101774.00;;;12.60
20736;BMP180;10528;52.124;5.196;2023-12-14T09:49:05;101789.00;;;12.70
20736;BMP180;10528;52.124;5.196;2023-12-14T09:51:35;101795.00;;;12.70
20736;BMP180;10528;52.124;5.196;2023-12-14T09:54:02;101793.00;;;12.60
20736;BMP180;10528;52.124;5.196;2023-12-14T09:56:29;101797.00;;;12.70
20736;BMP180;10528;52.124;5.196;2023-12-14T09:58:57;101798.00;;;12.70
20736;BMP180;10528;52.124;5.196;2023-12-14T10:01:27;101792.00;;;12.70
20736;BMP180;10528;52.124;5.196;2023-12-14T10:06:34;101803.00;;;12.70
20736;BMP180;10528;52.124;5.196;2023-12-14T10:09:01;101805.00;;;12.80
20736;BMP180;10528;52.124;5.196;2023-12-14T10:11:28;101811.00;;;12.90
20736;BMP180;10528;52.124;5.196;2023-12-14T10:13:55;101820.00;;;12.90
20736;BMP180;10528;52.124;5.196;2023-12-14T10:16:33;101816.00;;;12.90
20736;BMP180;10528;52.124;5.196;2023-12-14T10:19:00;101815.00;;;13.00
20736;BMP180;10528;52.124;5.196;2023-12-14T10:21:28;101827.00;;;13.00
20736;BMP180;10528;52.124;5.196;2023-12-14T10:23:56;101819.00;;;13.10
20736;BMP180;10528;52.124;5.196;2023-12-14T10:26:25;101816.00;;;13.10
20736;BMP180;10528;52.124;5.196;2023-12-14T10:28:53;101822.00;;;13.10
20736;BMP180;10528;52.124;5.196;2023-12-14T10:31:23;101812.00;;;13.10
20736;BMP180;10528;52.124;5.196;2023-12-14T10:33:51;101822.00;;;13.10
20736;BMP180;10528;52.124;5.196;2023-12-14T10:36:19;101824.00;;;13.10
20736;BMP180;10528;52.124;5.196;2023-12-14T10:38:56;101830.00;;;13.10
20736;BMP180;10528;52.124;5.196;2023-12-14T10:41:25;101829.00;;;13.10
20736;BMP180;10528;52.124;5.196;2023-12-14T10:43:55;101833.00;;;13.10
20736;BMP180;10528;52.124;5.196;2023-12-14T10:46:47;101830.00;;;13.10
20736;BMP180;10528;52.124;5.196;2023-12-14T10:49:16;101837.00;;;13.10
20736;BMP180;10528;52.124;5.196;2023-12-14T10:51:43;101832.00;;;13.10
20736;BMP180;10528;52.124;5.196;2023-12-14T10:54:15;101847.00;;;13.20
20736;BMP180;10528;52.124;5.196;2023-12-14T10:56:43;101849.00;;;13.20
20736;BMP180;10528;52.124;5.196;2023-12-14T10:59:10;101851.00;;;13.20
20736;BMP180;10528;52.124;5.196;2023-12-14T11:01:36;101845.00;;;13.20
20736;BMP180;10528;52.124;5.196;2023-12-14T11:04:06;101856.00;;;13.20
20736;BMP180;10528;52.124;5.196;2023-12-14T11:06:40;101854.00;;;13.20
20736;BMP180;10528;52.124;5.196;2023-12-14T11:09:09;101847.00;;;13.20
20736;BMP180;10528;52.124;5.196;2023-12-14T11:14:22;101839.00;;;13.20
20736;BMP180;10528;52.124;5.196;2023-12-14T11:16:54;101852.00;;;13.20
20736;BMP180;10528;52.124;5.196;2023-12-14T11:22:12;101858.00;;;13.20
20736;BMP180;10528;52.124;5.196;2023-12-14T11:24:50;101872.00;;;13.30
20736;BMP180;10528;52.124;5.196;2023-12-14T11:27:25;101864.00;;;13.30
20736;BMP180;10528;52.124;5.196;2023-12-14T11:29:53;101871.00;;;13.30
20736;BMP180;10528;52.124;5.196;2023-12-14T11:32:20;101874.00;;;13.30
20736;BMP180;10528;52.124;5.196;2023-12-14T11:34:47;101861.00;;;13.40
20736;BMP180;10528;52.124;5.196;2023-12-14T11:37:15;101873.00;;;13.40
20736;BMP180;10528;52.124;5.196;2023-12-14T11:39:42;101860.00;;;13.40
20736;BMP180;10528;52.124;5.196;2023-12-14T11:42:10;101869.00;;;13.40
20736;BMP180;10528;52.124;5.196;2023-12-14T11:44:40;101861.00;;;13.40
20736;BMP180;10528;52.124;5.196;2023-12-14T11:47:08;101870.00;;;13.50
20736;BMP180;10528;52.124;5.196;2023-12-14T11:49:36;101870.00;;;13.50
20736;BMP180;10528;52.124;5.196;2023-12-14T11:52:04;101881.00;;;13.50
20736;BMP180;10528;52.124;5.196;2023-12-14T11:54:31;101886.00;;;13.50
20736;BMP180;10528;52.124;5.196;2023-12-14T11:57:01;101886.00;;;13.60
20736;BMP180;10528;52.124;5.196;2023-12-14T11:59:31;101893.00;;;13.60
20736;BMP180;10528;52.124;5.196;2023-12-14T12:02:01;101894.00;;;13.60
20736;BMP180;10528;52.124;5.196;2023-12-14T12:04:28;101903.00;;;13.60
20736;BMP180;10528;52.124;5.196;2023-12-14T12:07:03;101903.00;;;13.60
20736;BMP180;10528;52.124;5.196;2023-12-14T12:09:40;101905.00;;;13.60
20736;BMP180;10528;52.124;5.196;2023-12-14T12:12:09;101906.00;;;13.60
20736;BMP180;10528;52.124;5.196;2023-12-14T12:14:41;101907.00;;;13.60
20736;BMP180;10528;52.124;5.196;2023-12-14T12:17:08;101899.00;;;13.60
20736;BMP180;10528;52.124;5.196;2023-12-14T12:19:37;101899.00;;;13.60
20736;BMP180;10528;52.124;5.196;2023-12-14T12:22:04;101892.00;;;13.60
20736;BMP180;10528;52.124;5.196;2023-12-14T12:24:31;101902.00;;;13.60
20736;BMP180;10528;52.124;5.196;2023-12-14T12:27:01;101910.00;;;13.60
20736;BMP180;10528;52.124;5.196;2023-12-14T12:29:28;101911.00;;;13.60
20736;BMP180;10528;52.124;5.196;2023-12-14T12:31:55;101903.00;;;13.60
20736;BMP180;10528;52.124;5.196;2023-12-14T12:34:22;101912.00;;;13.60
20736;BMP180;10528;52.124;5.196;2023-12-14T12:36:50;101911.00;;;13.50
20736;BMP180;10528;52.124;5.196;2023-12-14T12:39:17;101919.00;;;13.60
20736;BMP180;10528;52.124;5.196;2023-12-14T12:41:44;101905.00;;;13.60
20736;BMP180;10528;52.124;5.196;2023-12-14T12:44:11;101903.00;;;13.60
20736;BMP180;10528;52.124;5.196;2023-12-14T12:46:38;101910.00;;;13.60
20736;BMP180;10528;52.124;5.196;2023-12-14T12:49:05;101916.00;;;13.60
20736;BMP180;10528;52.124;5.196;2023-12-14T12:51:32;101911.00;;;13.60
20736;BMP180;10528;52.124;5.196;2023-12-14T12:54:00;101911.00;;;13.60
20736;BMP180;10528;52.124;5.196;2023-12-14T12:56:38;101901.00;;;13.60
20736;BMP180;10528;52.124;5.196;2023-12-14T12:59:06;101905.00;;;13.60
20736;BMP180;10528;52.124;5.196;2023-12-14T13:01:36;101905.00;;;13.60
20736;BMP180;10528;52.124;5.196;2023-12-14T13:04:03;101920.00;;;13.60
20736;BMP180;10528;52.124;5.196;2023-12-14T13:06:31;101909.00;;;13.60
20736;BMP180;10528;52.124;5.196;2023-12-14T13:08:58;101930.00;;;13.60
20736;BMP180;10528;52.124;5.196;2023-12-14T13:11:25;101909.00;;;13.70
20736;BMP180;10528;52.124;5.196;2023-12-14T13:13:52;101938.00;;;13.60
20736;BMP180;10528;52.124;5.196;2023-12-14T13:16:19;101937.00;;;13.60
20736;BMP180;10528;52.124;5.196;2023-12-14T13:18:46;101935.00;;;13.60
20736;BMP180;10528;52.124;5.196;2023-12-14T13:21:13;101937.00;;;13.60
20736;BMP180;10528;52.124;5.196;2023-12-14T13:23:40;101942.00;;;13.60
20736;BMP180;10528;52.124;5.196;2023-12-14T13:26:08;101935.00;;;13.60
20736;BMP180;10528;52.124;5.196;2023-12-14T13:28:35;101929.00;;;13.60
20736;BMP180;10528;52.124;5.196;2023-12-14T13:31:02;101937.00;;;13.60
20736;BMP180;10528;52.124;5.196;2023-12-14T13:33:30;101943.00;;;13.60
20736;BMP180;10528;52.124;5.196;2023-12-14T13:35:57;101942.00;;;13.70
20736;BMP180;10528;52.124;5.196;2023-12-14T13:38:24;101954.00;;;13.70
20736;BMP180;10528;52.124;5.196;2023-12-14T13:40:52;101959.00;;;13.70
20736;BMP180;10528;52.124;5.196;2023-12-14T13:43:19;101962.00;;;13.70
20736;BMP180;10528;52.124;5.196;2023-12-14T13:45:46;101960.00;;;13.70
20736;BMP180;10528;52.124;5.196;2023-12-14T13:48:25;101966.00;;;13.70
20736;BMP180;10528;52.124;5.196;2023-12-14T13:50:56;101972.00;;;13.70
20736;BMP180;10528;52.124;5.196;2023-12-14T13:53:23;101970.00;;;13.70
20736;BMP180;10528;52.124;5.196;2023-12-14T13:55:50;101964.00;;;13.70
20736;BMP180;10528;52.124;5.196;2023-12-14T13:58:17;101971.00;;;13.60
20736;BMP180;10528;52.124;5.196;2023-12-14T14:00:45;101982.00;;;13.60
20736;BMP180;10528;52.124;5.196;2023-12-14T14:03:12;101977.00;;;13.60
20736;BMP180;10528;52.124;5.196;2023-12-14T14:05:40;101981.00;;;13.60
20736;BMP180;10528;52.124;5.196;2023-12-14T14:08:07;101989.00;;;13.60